createdAt,value
2018-12-15T00:00:16.748Z,77.5
2018-12-15T00:01:16.817Z,77.7
2018-12-15T00:02:17.065Z,77.1
2018-12-15T00:03:16.320Z,77.2
2018-12-15T00:04:16.588Z,77.2
2018-12-15T00:05:16.858Z,77.2
2018-12-15T00:06:17.210Z,77.4
2018-12-15T00:07:16.469Z,77.2
2018-12-15T00:08:16.728Z,77.4
2018-12-15T00:09:17.004Z,77.3
2018-12-15T00:10:16.267Z,77.2
2018-12-15T00:11:16.310Z,77.0
2018-12-15T00:12:16.584Z,77.3
2018-12-15T00:13:16.854Z,76.9
2018-12-15T00:14:17.115Z,77.1
2018-12-15T00:15:16.368Z,77.0
2018-12-15T00:16:16.633Z,77.1
2018-12-15T00:17:16.898Z,77.3
2018-12-15T00:18:17.164Z,77.1
2018-12-15T00:19:16.428Z,77.2
2018-12-15T00:20:16.708Z,77.0
2018-12-15T00:21:16.755Z,77.1
2018-12-15T00:22:17.042Z,77.0
2018-12-15T00:23:16.314Z,76.9
2018-12-15T00:24:16.581Z,77.0
2018-12-15T00:25:16.845Z,77.4
2018-12-15T00:26:17.120Z,77.2
2018-12-15T00:27:16.389Z,77.0
2018-12-15T00:28:16.651Z,77.4
2018-12-15T00:29:16.925Z,77.2
2018-12-15T00:30:17.207Z,77.3
2018-12-15T00:31:16.263Z,77.5
2018-12-15T00:32:16.538Z,77.5
2018-12-15T00:33:16.798Z,77.3
2018-12-15T00:34:17.127Z,77.6
2018-12-15T00:35:16.393Z,77.2
2018-12-15T00:36:16.727Z,77.5
2018-12-15T00:37:16.997Z,77.4
2018-12-15T00:38:16.265Z,77.2
2018-12-15T00:39:16.540Z,77.3
2018-12-15T00:40:16.812Z,77.5
2018-12-15T00:41:16.858Z,77.5
2018-12-15T00:42:17.194Z,77.0
2018-12-15T00:43:16.446Z,76.9
2018-12-15T00:44:16.708Z,77.0
2018-12-15T00:45:16.979Z,77.3
2018-12-15T00:46:16.260Z,77.3
2018-12-15T00:47:16.537Z,77.2
2018-12-15T00:48:16.796Z,77.1
2018-12-15T00:49:17.055Z,77.1
2018-12-15T00:50:16.372Z,77.6
2018-12-15T00:51:16.370Z,77.5
2018-12-15T00:52:16.630Z,77.1
2018-12-15T00:53:16.903Z,77.0
2018-12-15T00:54:17.172Z,77.3
2018-12-15T00:55:16.444Z,77.1
2018-12-15T00:56:16.721Z,77.1
2018-12-15T00:57:16.986Z,77.2
2018-12-15T00:58:16.257Z,77.6
2018-12-15T00:59:16.528Z,77.2
2018-12-15T01:00:16.802Z,77.6
2018-12-15T01:01:16.855Z,77.2
2018-12-15T01:02:17.124Z,77.2
2018-12-15T01:03:16.395Z,77.8
2018-12-15T01:04:16.654Z,77.6
2018-12-15T01:05:16.912Z,77.5
2018-12-15T01:06:17.191Z,77.5
2018-12-15T01:07:16.444Z,77.8
2018-12-15T01:08:16.703Z,77.3
2018-12-15T01:09:16.971Z,77.3
2018-12-15T01:10:16.249Z,77.2
2018-12-15T01:11:16.295Z,77.4
2018-12-15T01:12:16.576Z,77.6
2018-12-15T01:13:16.842Z,77.6
2018-12-15T01:14:17.118Z,77.5
2018-12-15T01:15:16.380Z,77.3
2018-12-15T01:16:16.648Z,77.4
2018-12-15T01:17:20.855Z,77.3
2018-12-15T01:18:17.140Z,77.6
2018-12-15T01:19:16.409Z,77.8
2018-12-15T01:20:16.696Z,77.5
2018-12-15T01:21:16.722Z,77.5
2018-12-15T01:22:17.223Z,77.3
2018-12-15T01:23:16.498Z,77.4
2018-12-15T01:24:16.757Z,77.3
2018-12-15T01:25:17.044Z,77.2
2018-12-15T01:26:16.297Z,77.3
2018-12-15T01:27:16.556Z,77.4
2018-12-15T01:28:16.818Z,77.2
2018-12-15T01:29:17.098Z,77.6
2018-12-15T01:30:16.375Z,77.5
2018-12-15T01:31:16.437Z,77.5
2018-12-15T01:32:16.750Z,77.8
2018-12-15T01:33:17.039Z,78.1
2018-12-15T01:34:16.308Z,77.7
2018-12-15T01:35:16.576Z,77.9
2018-12-15T01:36:16.845Z,77.8
2018-12-15T01:37:17.109Z,78.1
2018-12-15T01:38:16.378Z,78.0
2018-12-15T01:39:16.648Z,78.0
2018-12-15T01:40:16.930Z,77.8
2018-12-15T01:41:16.967Z,77.6
2018-12-15T01:42:16.233Z,77.8
2018-12-15T01:43:16.511Z,77.9
2018-12-15T01:44:16.788Z,77.6
2018-12-15T01:45:17.057Z,77.5
2018-12-15T01:46:16.324Z,77.8
2018-12-15T01:47:16.594Z,78.2
2018-12-15T01:48:16.867Z,78.0
2018-12-15T01:49:17.131Z,78.3
2018-12-15T01:50:16.407Z,77.9
2018-12-15T01:51:16.455Z,77.8
2018-12-15T01:52:16.717Z,77.5
2018-12-15T01:53:17.237Z,78.0
2018-12-15T01:54:16.499Z,78.0
2018-12-15T01:55:16.764Z,78.0
2018-12-15T01:56:17.041Z,78.2
2018-12-15T01:57:16.300Z,78.0
2018-12-15T01:58:16.856Z,77.7
2018-12-15T01:59:17.118Z,78.0
2018-12-15T02:00:16.407Z,77.7
2018-12-15T02:01:16.458Z,78.1
2018-12-15T02:02:16.716Z,78.0
2018-12-15T02:03:16.985Z,78.4
2018-12-15T02:04:16.247Z,78.2
2018-12-15T02:05:16.533Z,77.8
2018-12-15T02:06:16.793Z,78.1
2018-12-15T02:07:17.105Z,77.9
2018-12-15T02:08:16.381Z,77.6
2018-12-15T02:09:16.660Z,77.7
2018-12-15T02:10:16.926Z,77.3
2018-12-15T02:11:16.971Z,78.0
2018-12-15T02:12:16.239Z,77.8
2018-12-15T02:13:16.502Z,77.6
2018-12-15T02:14:16.770Z,77.5
2018-12-15T02:15:17.041Z,77.5
2018-12-15T02:16:16.308Z,78.0
2018-12-15T02:17:16.569Z,78.0
2018-12-15T02:18:16.824Z,77.8
2018-12-15T02:19:17.091Z,77.8
2018-12-15T02:20:16.368Z,78.1
2018-12-15T02:21:16.425Z,78.5
2018-12-15T02:22:16.752Z,77.6
2018-12-15T02:23:17.021Z,77.6
2018-12-15T02:24:16.289Z,77.8
2018-12-15T02:25:16.558Z,78.2
2018-12-15T02:26:16.822Z,77.5
2018-12-15T02:27:17.079Z,77.9
2018-12-15T02:28:16.347Z,78.4
2018-12-15T02:29:16.616Z,77.8
2018-12-15T02:30:16.906Z,78.0
2018-12-15T02:31:16.943Z,77.8
2018-12-15T02:32:16.201Z,78.2
2018-12-15T02:33:16.475Z,77.9
2018-12-15T02:34:16.751Z,78.2
2018-12-15T02:35:17.014Z,77.8
2018-12-15T02:36:16.286Z,77.9
2018-12-15T02:37:16.563Z,78.3
2018-12-15T02:38:16.836Z,78.3
2018-12-15T02:39:17.112Z,77.9
2018-12-15T02:40:16.397Z,77.8
2018-12-15T02:41:16.442Z,77.0
2018-12-15T02:42:16.714Z,77.3
2018-12-15T02:43:16.984Z,77.5
2018-12-15T02:44:16.255Z,77.3
2018-12-15T02:45:16.532Z,78.0
2018-12-15T02:46:16.795Z,77.5
2018-12-15T02:47:17.070Z,77.8
2018-12-15T02:48:16.335Z,78.5
2018-12-15T02:49:16.607Z,77.6
2018-12-15T02:50:16.882Z,77.5
2018-12-15T02:51:16.926Z,78.2
2018-12-15T02:52:17.185Z,77.5
2018-12-15T02:53:16.458Z,78.2
2018-12-15T02:54:16.724Z,78.2
2018-12-15T02:55:16.997Z,77.9
2018-12-15T02:56:16.271Z,77.8
2018-12-15T02:57:16.561Z,77.6
2018-12-15T02:58:16.830Z,77.9
2018-12-15T02:59:17.096Z,78.0
2018-12-15T03:00:16.404Z,77.6
2018-12-15T03:01:16.413Z,77.9
2018-12-15T03:02:16.700Z,77.4
2018-12-15T03:03:16.983Z,77.9
2018-12-15T03:04:16.262Z,77.8
2018-12-15T03:05:16.553Z,77.4
2018-12-15T03:06:16.823Z,77.7
2018-12-15T03:07:17.087Z,77.7
2018-12-15T03:08:16.493Z,77.5
2018-12-15T03:09:16.757Z,77.8
2018-12-15T03:10:17.034Z,78.1
2018-12-15T03:11:17.075Z,77.5
2018-12-15T03:12:16.339Z,77.8
2018-12-15T03:13:16.607Z,78.2
2018-12-15T03:14:16.883Z,77.7
2018-12-15T03:15:17.165Z,77.7
2018-12-15T03:16:16.444Z,78.1
2018-12-15T03:17:16.704Z,78.1
2018-12-15T03:18:16.978Z,77.7
2018-12-15T03:19:16.247Z,77.5
2018-12-15T03:20:16.531Z,77.3
2018-12-15T03:21:16.581Z,77.9
2018-12-15T03:22:16.848Z,78.0
2018-12-15T03:23:17.116Z,77.3
2018-12-15T03:24:16.381Z,77.9
2018-12-15T03:25:16.657Z,78.0
2018-12-15T03:26:16.921Z,78.0
2018-12-15T03:27:17.184Z,77.6
2018-12-15T03:28:16.446Z,78.3
2018-12-15T03:29:16.861Z,77.8
2018-12-15T03:30:17.156Z,77.6
2018-12-15T03:31:17.190Z,77.7
2018-12-15T03:32:16.467Z,77.8
2018-12-15T03:33:16.742Z,78.1
2018-12-15T03:34:17.027Z,78.1
2018-12-15T03:35:16.311Z,78.0
2018-12-15T03:36:16.562Z,77.7
2018-12-15T03:37:16.840Z,77.9
2018-12-15T03:38:17.129Z,78.0
2018-12-15T03:39:16.401Z,77.8
2018-12-15T03:40:16.671Z,77.7
2018-12-15T03:41:16.728Z,77.6
2018-12-15T03:42:16.986Z,77.7
2018-12-15T03:43:16.249Z,77.6
2018-12-15T03:44:16.558Z,77.3
2018-12-15T03:45:16.835Z,77.5
2018-12-15T03:46:17.168Z,78.0
2018-12-15T03:47:16.433Z,78.2
2018-12-15T03:48:16.704Z,78.2
2018-12-15T03:49:16.965Z,77.8
2018-12-15T03:50:16.256Z,77.8
2018-12-15T03:51:16.310Z,77.8
2018-12-15T03:52:16.582Z,77.7
2018-12-15T03:53:16.851Z,77.5
2018-12-15T03:54:17.147Z,77.3
2018-12-15T03:55:16.426Z,77.6
2018-12-15T03:56:16.732Z,77.4
2018-12-15T03:57:16.998Z,77.4
2018-12-15T03:58:16.272Z,77.5
2018-12-15T03:59:16.553Z,78.0
2018-12-15T04:00:16.852Z,77.5
2018-12-15T04:01:16.891Z,77.8
2018-12-15T04:02:17.171Z,77.3
2018-12-15T04:03:16.440Z,77.3
2018-12-15T04:04:16.707Z,77.5
2018-12-15T04:05:16.966Z,77.6
2018-12-15T04:06:16.226Z,77.5
2018-12-15T04:07:16.489Z,77.6
2018-12-15T04:08:16.755Z,77.5
2018-12-15T04:09:17.019Z,78.0
2018-12-15T04:10:16.306Z,78.4
2018-12-15T04:11:16.345Z,77.4
2018-12-15T04:12:16.616Z,77.5
2018-12-15T04:13:16.962Z,77.6
2018-12-15T04:14:16.229Z,77.3
2018-12-15T04:15:16.506Z,77.3
2018-12-15T04:16:16.776Z,77.6
2018-12-15T04:17:17.040Z,77.4
2018-12-15T04:18:16.304Z,77.2
2018-12-15T04:19:16.574Z,77.5
2018-12-15T04:20:16.850Z,77.4
2018-12-15T04:21:16.912Z,77.0
2018-12-15T04:22:17.175Z,77.6
2018-12-15T04:23:16.442Z,77.4
2018-12-15T04:24:16.735Z,77.7
2018-12-15T04:25:17.012Z,77.4
2018-12-15T04:26:16.273Z,77.3
2018-12-15T04:27:16.543Z,78.0
2018-12-15T04:28:16.800Z,77.5
2018-12-15T04:29:17.072Z,77.8
2018-12-15T04:30:16.352Z,77.5
2018-12-15T04:31:16.397Z,77.2
2018-12-15T04:32:16.668Z,77.3
2018-12-15T04:33:17.242Z,77.6
2018-12-15T04:34:16.508Z,77.5
2018-12-15T04:35:16.785Z,77.4
2018-12-15T04:36:17.055Z,77.6
2018-12-15T04:37:16.327Z,77.5
2018-12-15T04:38:16.587Z,77.1
2018-12-15T04:39:16.861Z,77.7
2018-12-15T04:40:17.133Z,77.3
2018-12-15T04:41:17.192Z,77.0
2018-12-15T04:42:16.460Z,76.8
2018-12-15T04:43:16.732Z,77.4
2018-12-15T04:44:16.998Z,77.5
2018-12-15T04:45:16.272Z,77.5
2018-12-15T04:46:16.553Z,77.1
2018-12-15T04:47:16.808Z,77.4
2018-12-15T04:48:17.074Z,77.3
2018-12-15T04:49:16.340Z,77.2
2018-12-15T04:50:16.606Z,77.3
2018-12-15T04:51:16.652Z,77.0
2018-12-15T04:52:16.926Z,77.0
2018-12-15T04:53:17.191Z,77.2
2018-12-15T04:54:16.458Z,76.9
2018-12-15T04:55:16.718Z,77.0
2018-12-15T04:56:16.989Z,77.6
2018-12-15T04:57:16.261Z,77.3
2018-12-15T04:58:16.540Z,77.1
2018-12-15T04:59:16.818Z,77.2
2018-12-15T05:00:17.125Z,77.2
2018-12-15T05:01:17.155Z,76.9
2018-12-15T05:02:16.450Z,76.8
2018-12-15T05:03:16.721Z,76.7
2018-12-15T05:04:17.164Z,76.7
2018-12-15T05:05:16.429Z,76.9
2018-12-15T05:06:16.687Z,77.1
2018-12-15T05:07:16.955Z,76.8
2018-12-15T05:08:16.223Z,77.6
2018-12-15T05:09:16.499Z,77.4
2018-12-15T05:10:16.776Z,77.2
2018-12-15T05:11:16.813Z,76.8
2018-12-15T05:12:17.084Z,76.8
2018-12-15T05:13:16.353Z,77.5
2018-12-15T05:14:16.632Z,77.4
2018-12-15T05:15:16.904Z,77.2
2018-12-15T05:16:17.164Z,77.2
2018-12-15T05:17:16.428Z,77.2
2018-12-15T05:18:18.621Z,77.0
2018-12-15T05:19:16.956Z,77.1
2018-12-15T05:20:16.226Z,77.0
2018-12-15T05:21:16.291Z,76.7
2018-12-15T05:22:16.556Z,77.2
2018-12-15T05:23:16.826Z,77.2
2018-12-15T05:24:17.106Z,77.5
2018-12-15T05:25:16.395Z,77.0
2018-12-15T05:26:16.671Z,76.8
2018-12-15T05:27:16.934Z,76.9
2018-12-15T05:28:16.199Z,77.2
2018-12-15T05:29:16.462Z,77.3
2018-12-15T05:30:16.729Z,77.2
2018-12-15T05:31:16.792Z,77.3
2018-12-15T05:32:17.060Z,77.1
2018-12-15T05:33:16.321Z,77.5
2018-12-15T05:34:16.579Z,77.2
2018-12-15T05:35:16.949Z,77.2
2018-12-15T05:36:16.219Z,77.2
2018-12-15T05:37:16.490Z,77.1
2018-12-15T05:38:16.754Z,77.3
2018-12-15T05:39:17.053Z,77.4
2018-12-15T05:40:16.366Z,77.5
2018-12-15T05:41:16.804Z,77.6
2018-12-15T05:42:17.136Z,77.8
2018-12-15T05:43:16.405Z,77.3
2018-12-15T05:44:16.660Z,77.4
2018-12-15T05:45:16.925Z,77.5
2018-12-15T05:46:17.187Z,77.5
2018-12-15T05:47:16.444Z,77.2
2018-12-15T05:48:16.709Z,77.5
2018-12-15T05:49:16.986Z,77.3
2018-12-15T05:50:16.259Z,77.2
2018-12-15T05:51:16.302Z,77.5
2018-12-15T05:52:16.573Z,77.2
2018-12-15T05:53:16.836Z,77.0
2018-12-15T05:54:17.104Z,77.3
2018-12-15T05:55:16.371Z,77.5
2018-12-15T05:56:16.630Z,77.2
2018-12-15T05:57:16.904Z,77.1
2018-12-15T05:58:17.162Z,77.6
2018-12-15T05:59:16.760Z,76.8
2018-12-15T06:00:17.032Z,76.6
2018-12-15T06:01:17.089Z,76.8
2018-12-15T06:02:16.347Z,76.7
2018-12-15T06:03:16.609Z,76.6
2018-12-15T06:04:16.879Z,76.9
2018-12-15T06:05:17.159Z,77.0
2018-12-15T06:06:16.420Z,77.2
2018-12-15T06:07:16.692Z,77.1
2018-12-15T06:08:16.964Z,77.3
2018-12-15T06:09:16.236Z,77.2
2018-12-15T06:10:16.520Z,77.5
2018-12-15T06:11:16.564Z,77.4
2018-12-15T06:12:16.826Z,77.1
2018-12-15T06:13:17.079Z,76.8
2018-12-15T06:14:16.352Z,77.3
2018-12-15T06:15:16.621Z,77.2
2018-12-15T06:16:16.882Z,77.1
2018-12-15T06:17:17.138Z,77.2
2018-12-15T06:18:16.403Z,77.0
2018-12-15T06:19:16.672Z,77.2
2018-12-15T06:20:16.944Z,77.2
2018-12-15T06:21:16.981Z,77.3
2018-12-15T06:22:16.254Z,77.1
2018-12-15T06:23:16.519Z,77.2
2018-12-15T06:24:16.784Z,77.2
2018-12-15T06:25:17.067Z,77.2
2018-12-15T06:26:16.325Z,77.3
2018-12-15T06:27:16.595Z,77.2
2018-12-15T06:28:16.855Z,77.0
2018-12-15T06:29:17.141Z,77.5
2018-12-15T06:30:16.404Z,77.4
2018-12-15T06:31:16.461Z,77.2
2018-12-15T06:32:16.733Z,77.3
2018-12-15T06:33:17.003Z,76.9
2018-12-15T06:34:16.331Z,77.0
2018-12-15T06:35:16.627Z,76.9
2018-12-15T06:36:16.936Z,77.0
2018-12-15T06:37:16.186Z,77.5
2018-12-15T06:38:16.450Z,77.3
2018-12-15T06:39:16.710Z,77.5
2018-12-15T06:40:16.979Z,77.3
2018-12-15T06:41:17.034Z,77.2
2018-12-15T06:42:16.307Z,77.1
2018-12-15T06:43:16.580Z,77.2
2018-12-15T06:44:16.842Z,77.1
2018-12-15T06:45:17.107Z,77.0
2018-12-15T06:46:16.368Z,77.3
2018-12-15T06:47:16.625Z,77.3
2018-12-15T06:48:16.895Z,77.2
2018-12-15T06:49:17.172Z,77.2
2018-12-15T06:50:16.443Z,77.0
2018-12-15T06:51:16.486Z,77.2
2018-12-15T06:52:16.752Z,77.2
2018-12-15T06:53:17.020Z,77.3
2018-12-15T06:54:16.281Z,77.3
2018-12-15T06:55:16.559Z,77.5
2018-12-15T06:56:16.816Z,77.5
2018-12-15T06:57:17.079Z,77.5
2018-12-15T06:58:16.351Z,77.4
2018-12-15T06:59:16.624Z,77.6
2018-12-15T07:00:16.906Z,77.6
2018-12-15T07:01:16.948Z,77.5
2018-12-15T07:02:16.219Z,77.1
2018-12-15T07:03:16.481Z,77.1
2018-12-15T07:04:16.738Z,77.1
2018-12-15T07:05:17.040Z,77.0
2018-12-15T07:06:16.303Z,76.8
2018-12-15T07:07:16.572Z,76.8
2018-12-15T07:08:16.833Z,77.0
2018-12-15T07:09:17.096Z,77.0
2018-12-15T07:10:16.361Z,77.0
2018-12-15T07:11:16.424Z,77.0
2018-12-15T07:12:16.684Z,77.3
2018-12-15T07:13:17.294Z,77.2
2018-12-15T07:14:16.566Z,77.1
2018-12-15T07:15:16.845Z,77.2
2018-12-15T07:16:17.117Z,77.1
2018-12-15T07:17:16.378Z,76.8
2018-12-15T07:18:16.639Z,76.8
2018-12-15T07:19:16.907Z,76.7
2018-12-15T07:20:17.170Z,76.8
2018-12-15T07:21:16.306Z,76.6
2018-12-15T07:22:16.568Z,76.9
2018-12-15T07:23:16.836Z,77.0
2018-12-15T07:24:17.104Z,76.8
2018-12-15T07:25:16.369Z,76.7
2018-12-15T07:26:16.628Z,76.7
2018-12-15T07:27:16.895Z,76.8
2018-12-15T07:28:17.151Z,76.6
2018-12-15T07:29:16.419Z,76.1
2018-12-15T07:30:16.685Z,76.2
2018-12-15T07:31:16.752Z,76.1
2018-12-15T07:32:17.028Z,76.3
2018-12-15T07:33:16.296Z,76.1
2018-12-15T07:34:16.558Z,76.2
2018-12-15T07:35:16.821Z,76.1
2018-12-15T07:36:17.082Z,76.2
2018-12-15T07:37:16.662Z,75.8
2018-12-15T07:38:16.925Z,76.0
2018-12-15T07:39:16.184Z,75.7
2018-12-15T07:40:16.457Z,75.9
2018-12-15T07:41:16.518Z,75.4
2018-12-15T07:42:16.787Z,75.6
2018-12-15T07:43:17.051Z,75.4
2018-12-15T07:44:16.314Z,75.2
2018-12-15T07:45:16.570Z,75.2
2018-12-15T07:46:16.854Z,75.6
2018-12-15T07:47:17.392Z,75.5
2018-12-15T07:48:16.669Z,75.8
2018-12-15T07:49:16.950Z,75.5
2018-12-15T07:50:16.231Z,75.6
2018-12-15T07:51:16.279Z,75.6
2018-12-15T07:52:16.555Z,75.7
2018-12-15T07:53:16.830Z,76.0
2018-12-15T07:54:17.093Z,75.3
2018-12-15T07:55:16.356Z,75.9
2018-12-15T07:56:16.640Z,75.8
2018-12-15T07:57:16.904Z,75.5
2018-12-15T07:58:17.167Z,75.5
2018-12-15T07:59:16.438Z,75.4
2018-12-15T08:00:16.726Z,75.3
2018-12-15T08:01:16.771Z,75.0
2018-12-15T08:02:17.353Z,75.0
2018-12-15T08:03:16.636Z,74.7
2018-12-15T08:04:16.898Z,75.2
2018-12-15T08:05:17.160Z,74.8
2018-12-15T08:06:16.429Z,74.5
2018-12-15T08:07:16.698Z,74.4
2018-12-15T08:08:16.973Z,74.5
2018-12-15T08:09:16.227Z,74.8
2018-12-15T08:10:16.703Z,74.6
2018-12-15T08:11:16.564Z,75.4
2018-12-15T08:12:16.829Z,75.6
2018-12-15T08:13:17.095Z,74.6
2018-12-15T08:14:16.363Z,74.0
2018-12-15T08:15:16.634Z,72.5
2018-12-15T08:16:16.963Z,72.2
2018-12-15T08:17:16.231Z,72.4
2018-12-15T08:18:16.544Z,72.6
2018-12-15T08:19:16.810Z,72.7
2018-12-15T08:20:17.083Z,73.1
2018-12-15T08:21:17.120Z,73.4
2018-12-15T08:22:16.382Z,73.5
2018-12-15T08:23:16.653Z,73.7
2018-12-15T08:24:16.931Z,73.7
2018-12-15T08:25:16.190Z,73.5
2018-12-15T08:26:16.447Z,73.2
2018-12-15T08:27:16.718Z,73.5
2018-12-15T08:28:16.987Z,73.3
2018-12-15T08:29:16.242Z,73.2
2018-12-15T08:30:16.539Z,73.1
2018-12-15T08:31:16.580Z,73.8
2018-12-15T08:32:16.847Z,73.8
2018-12-15T08:33:17.106Z,73.4
2018-12-15T08:34:16.361Z,73.9
2018-12-15T08:35:16.631Z,73.3
2018-12-15T08:36:16.894Z,73.6
2018-12-15T08:37:17.166Z,73.3
2018-12-15T08:38:16.432Z,73.2
2018-12-15T08:39:16.700Z,73.2
2018-12-15T08:40:16.986Z,72.8
2018-12-15T08:41:17.042Z,73.2
2018-12-15T08:42:16.309Z,73.0
2018-12-15T08:43:16.577Z,73.5
2018-12-15T08:44:16.840Z,72.2
2018-12-15T08:45:17.099Z,72.5
2018-12-15T08:46:16.371Z,71.1
2018-12-15T08:47:16.638Z,71.2
2018-12-15T08:48:16.904Z,71.6
2018-12-15T08:49:17.172Z,71.8
2018-12-15T08:50:16.445Z,72.0
2018-12-15T08:51:16.483Z,72.0
2018-12-15T08:52:16.746Z,72.3
2018-12-15T08:53:17.017Z,72.2
2018-12-15T08:54:16.366Z,72.0
2018-12-15T08:55:16.644Z,72.0
2018-12-15T08:56:16.911Z,71.8
2018-12-15T08:57:17.185Z,72.5
2018-12-15T08:58:16.449Z,71.1
2018-12-15T08:59:16.721Z,70.5
2018-12-15T09:00:17.000Z,70.2
2018-12-15T09:01:17.041Z,70.5
2018-12-15T09:02:16.297Z,71.1
2018-12-15T09:03:16.572Z,71.2
2018-12-15T09:04:16.835Z,70.8
2018-12-15T09:05:17.106Z,70.8
2018-12-15T09:06:16.376Z,71.7
2018-12-15T09:07:16.758Z,72.0
2018-12-15T09:08:17.025Z,71.0
2018-12-15T09:09:16.290Z,71.5
2018-12-15T09:10:16.566Z,71.5
2018-12-15T09:11:16.596Z,71.2
2018-12-15T09:12:16.864Z,71.0
2018-12-15T09:13:17.132Z,71.8
2018-12-15T09:14:16.396Z,71.2
2018-12-15T09:15:16.664Z,71.3
2018-12-15T09:16:16.938Z,70.2
2018-12-15T09:17:16.194Z,70.4
2018-12-15T09:18:16.464Z,70.2
2018-12-15T09:19:16.745Z,70.5
2018-12-15T09:20:17.023Z,70.7
2018-12-15T09:21:17.061Z,70.8
2018-12-15T09:22:16.322Z,70.6
2018-12-15T09:23:16.577Z,70.6
2018-12-15T09:24:16.846Z,69.9
2018-12-15T09:25:17.101Z,70.0
2018-12-15T09:26:16.362Z,69.5
2018-12-15T09:27:16.625Z,70.1
2018-12-15T09:28:16.902Z,70.1
2018-12-15T09:29:17.176Z,70.2
2018-12-15T09:30:16.444Z,70.7
2018-12-15T09:31:16.514Z,69.9
2018-12-15T09:32:16.776Z,69.5
2018-12-15T09:33:17.041Z,69.3
2018-12-15T09:34:16.308Z,69.2
2018-12-15T09:35:16.849Z,69.2
2018-12-15T09:36:17.105Z,68.7
2018-12-15T09:37:16.373Z,68.8
2018-12-15T09:38:16.638Z,68.5
2018-12-15T09:39:16.902Z,68.8
2018-12-15T09:40:17.161Z,68.8
2018-12-15T09:41:16.223Z,68.6
2018-12-15T09:42:16.526Z,69.3
2018-12-15T09:43:16.798Z,69.2
2018-12-15T09:44:17.082Z,68.5
2018-12-15T09:45:16.362Z,68.8
2018-12-15T09:46:16.627Z,68.5
2018-12-15T09:47:16.887Z,68.5
2018-12-15T09:48:17.154Z,68.8
2018-12-15T09:49:18.123Z,67.8
2018-12-15T09:50:16.386Z,68.4
2018-12-15T09:51:16.450Z,68.2
2018-12-15T09:52:16.709Z,68.3
2018-12-15T09:53:16.969Z,68.6
2018-12-15T09:54:16.235Z,68.0
2018-12-15T09:55:16.557Z,68.5
2018-12-15T09:56:16.833Z,68.9
2018-12-15T09:57:17.092Z,67.9
2018-12-15T09:58:16.370Z,68.0
2018-12-15T09:59:16.635Z,68.3
2018-12-15T10:00:16.912Z,68.9
2018-12-15T10:01:16.962Z,68.2
2018-12-15T10:02:16.227Z,67.7
2018-12-15T10:03:16.485Z,67.9
2018-12-15T10:04:16.754Z,68.3
2018-12-15T10:05:17.020Z,68.0
2018-12-15T10:06:16.281Z,68.1
2018-12-15T10:07:16.559Z,67.9
2018-12-15T10:08:16.842Z,68.2
2018-12-15T10:09:17.121Z,68.0
2018-12-15T10:10:16.379Z,67.9
2018-12-15T10:11:16.444Z,67.8
2018-12-15T10:12:16.707Z,68.0
2018-12-15T10:13:16.974Z,68.1
2018-12-15T10:14:16.243Z,68.4
2018-12-15T10:15:16.528Z,68.3
2018-12-15T10:16:16.793Z,67.4
2018-12-15T10:17:17.065Z,67.8
2018-12-15T10:18:16.317Z,68.0
2018-12-15T10:19:16.592Z,68.2
2018-12-15T10:20:16.861Z,68.0
2018-12-15T10:21:16.919Z,67.5
2018-12-15T10:22:16.182Z,68.0
2018-12-15T10:23:16.460Z,68.3
2018-12-15T10:24:16.726Z,68.0
2018-12-15T10:25:17.014Z,68.2
2018-12-15T10:26:16.283Z,67.9
2018-12-15T10:27:16.551Z,68.0
2018-12-15T10:28:16.814Z,67.5
2018-12-15T10:29:17.078Z,67.8
2018-12-15T10:30:16.342Z,68.0
2018-12-15T10:31:16.388Z,68.7
2018-12-15T10:32:16.650Z,68.9
2018-12-15T10:33:16.914Z,67.9
2018-12-15T10:34:17.175Z,67.4
2018-12-15T10:35:16.428Z,67.3
2018-12-15T10:36:16.691Z,67.5
2018-12-15T10:37:16.945Z,68.4
2018-12-15T10:38:16.210Z,67.7
2018-12-15T10:39:16.490Z,67.2
2018-12-15T10:40:16.767Z,67.5
2018-12-15T10:41:16.821Z,68.1
2018-12-15T10:42:17.093Z,68.2
2018-12-15T10:43:16.358Z,68.2
2018-12-15T10:44:16.618Z,67.5
2018-12-15T10:45:16.896Z,67.3
2018-12-15T10:46:17.153Z,67.1
2018-12-15T10:47:16.430Z,67.4
2018-12-15T10:48:16.693Z,67.5
2018-12-15T10:49:16.960Z,68.3
2018-12-15T10:50:16.228Z,68.1
2018-12-15T10:51:16.294Z,69.0
2018-12-15T10:52:16.552Z,67.4
2018-12-15T10:53:16.813Z,68.2
2018-12-15T10:54:17.070Z,67.8
2018-12-15T10:55:16.343Z,68.8
2018-12-15T10:56:16.611Z,68.2
2018-12-15T10:57:16.878Z,67.3
2018-12-15T10:58:17.140Z,66.9
2018-12-15T10:59:16.418Z,67.2
2018-12-15T11:00:16.689Z,66.8
2018-12-15T11:01:16.738Z,67.2
2018-12-15T11:02:17.026Z,67.3
2018-12-15T11:03:16.285Z,67.7
2018-12-15T11:04:16.553Z,67.6
2018-12-15T11:05:16.816Z,67.7
2018-12-15T11:06:17.074Z,67.2
2018-12-15T11:07:16.342Z,66.5
2018-12-15T11:08:16.594Z,66.8
2018-12-15T11:09:16.859Z,67.5
2018-12-15T11:10:17.128Z,67.0
2018-12-15T11:11:16.200Z,68.0
2018-12-15T11:12:16.470Z,68.1
2018-12-15T11:13:16.736Z,67.3
2018-12-15T11:14:17.010Z,67.4
2018-12-15T11:15:16.296Z,67.5
2018-12-15T11:16:16.581Z,66.7
2018-12-15T11:17:16.850Z,67.3
2018-12-15T11:18:17.125Z,67.8
2018-12-15T11:19:16.389Z,67.8
2018-12-15T11:20:16.672Z,66.7
2018-12-15T11:21:16.713Z,67.7
2018-12-15T11:22:17.005Z,67.8
2018-12-15T11:23:16.280Z,67.6
2018-12-15T11:24:16.561Z,66.8
2018-12-15T11:25:16.836Z,66.8
2018-12-15T11:26:17.114Z,67.0
2018-12-15T11:27:16.372Z,67.6
2018-12-15T11:28:16.633Z,67.8
2018-12-15T11:29:16.900Z,67.0
2018-12-15T11:30:17.179Z,66.8
2018-12-15T11:31:16.238Z,66.9
2018-12-15T11:32:16.507Z,66.5
2018-12-15T11:33:16.774Z,66.3
2018-12-15T11:34:17.045Z,66.5
2018-12-15T11:35:16.316Z,66.7
2018-12-15T11:36:16.586Z,66.5
2018-12-15T11:37:16.858Z,66.0
2018-12-15T11:38:17.123Z,66.4
2018-12-15T11:39:16.431Z,66.3
2018-12-15T11:40:16.712Z,67.0
2018-12-15T11:41:16.780Z,66.4
2018-12-15T11:42:17.051Z,66.2
2018-12-15T11:43:16.309Z,66.7
2018-12-15T11:44:16.572Z,66.8
2018-12-15T11:45:16.853Z,67.0
2018-12-15T11:46:17.135Z,67.2
2018-12-15T11:47:16.408Z,66.9
2018-12-15T11:48:16.687Z,66.7
2018-12-15T11:49:16.954Z,66.8
2018-12-15T11:50:16.227Z,66.2
2018-12-15T11:51:16.274Z,66.9
2018-12-15T11:52:16.554Z,66.2
2018-12-15T11:53:16.812Z,66.1
2018-12-15T11:54:17.074Z,66.1
2018-12-15T11:55:16.344Z,65.4
2018-12-15T11:56:16.606Z,65.1
2018-12-15T11:57:16.862Z,65.2
2018-12-15T11:58:17.120Z,65.6
2018-12-15T11:59:16.383Z,65.3
2018-12-15T12:00:16.733Z,65.4
2018-12-15T12:01:16.701Z,65.2
2018-12-15T12:02:16.965Z,65.8
2018-12-15T12:03:16.228Z,65.5
2018-12-15T12:04:16.504Z,66.4
2018-12-15T12:05:16.775Z,67.8
2018-12-15T12:06:17.050Z,66.2
2018-12-15T12:07:16.316Z,65.3
2018-12-15T12:08:16.584Z,66.0
2018-12-15T12:09:16.851Z,65.8
2018-12-15T12:10:17.126Z,66.1
2018-12-15T12:11:16.192Z,65.8
2018-12-15T12:12:16.460Z,67.9
2018-12-15T12:13:16.725Z,67.2
2018-12-15T12:14:16.993Z,66.5
2018-12-15T12:15:16.271Z,66.0
2018-12-15T12:16:16.534Z,66.7
2018-12-15T12:17:16.801Z,67.4
2018-12-15T12:18:17.067Z,67.2
2018-12-15T12:19:16.335Z,66.4
2018-12-15T12:20:16.612Z,67.7
2018-12-15T12:21:16.689Z,66.7
2018-12-15T12:22:16.954Z,65.6
2018-12-15T12:23:16.221Z,66.0
2018-12-15T12:24:16.535Z,66.4
2018-12-15T12:25:16.798Z,66.5
2018-12-15T12:26:17.087Z,65.8
2018-12-15T12:27:16.360Z,65.8
2018-12-15T12:28:16.636Z,65.3
2018-12-15T12:29:16.904Z,67.0
2018-12-15T12:30:17.167Z,66.8
2018-12-15T12:31:16.241Z,66.0
2018-12-15T12:32:16.500Z,67.0
2018-12-15T12:33:16.783Z,66.6
2018-12-15T12:34:17.055Z,67.9
2018-12-15T12:35:16.327Z,67.1
2018-12-15T12:36:16.599Z,67.8
2018-12-15T12:37:16.982Z,67.8
2018-12-15T12:38:16.245Z,68.0
2018-12-15T12:39:16.501Z,67.5
2018-12-15T12:40:16.779Z,67.4
2018-12-15T12:41:16.827Z,67.2
2018-12-15T12:42:17.397Z,67.2
2018-12-15T12:43:16.657Z,67.0
2018-12-15T12:44:16.947Z,66.5
2018-12-15T12:45:16.225Z,66.6
2018-12-15T12:46:16.492Z,66.8
2018-12-15T12:47:16.752Z,67.5
2018-12-15T12:48:17.010Z,66.0
2018-12-15T12:49:16.276Z,66.5
2018-12-15T12:50:16.542Z,67.1
2018-12-15T12:51:16.623Z,66.8
2018-12-15T12:52:16.884Z,66.5
2018-12-15T12:53:17.222Z,66.9
2018-12-15T12:54:16.492Z,66.8
2018-12-15T12:55:16.766Z,66.5
2018-12-15T12:56:17.047Z,66.6
2018-12-15T12:57:16.311Z,66.5
2018-12-15T12:58:16.585Z,66.6
2018-12-15T12:59:16.848Z,67.5
2018-12-15T13:00:17.112Z,66.6
2018-12-15T13:01:17.182Z,67.4
2018-12-15T13:02:16.450Z,67.8
2018-12-15T13:03:16.710Z,67.0
2018-12-15T13:04:16.992Z,67.5
2018-12-15T13:05:16.262Z,67.8
2018-12-15T13:06:16.542Z,68.9
2018-12-15T13:07:16.810Z,68.5
2018-12-15T13:08:17.078Z,68.9
2018-12-15T13:09:16.350Z,68.3
2018-12-15T13:10:16.615Z,68.8
2018-12-15T13:11:16.686Z,67.9
2018-12-15T13:12:16.946Z,68.3
2018-12-15T13:13:16.210Z,68.3
2018-12-15T13:14:16.474Z,67.7
2018-12-15T13:15:16.740Z,68.3
2018-12-15T13:16:17.010Z,68.1
2018-12-15T13:17:16.272Z,67.5
2018-12-15T13:18:16.523Z,67.8